Newburgh, Maine
Current Conditions -  °F | °C
As of 6:53 AM on Friday 19 Dec 2014 (Local Time) from KBGR Reporting Station
Overcast Overcast  
Wind Chill: 22°   Ceiling: 2300
Heat Index: 29°   Visibility: 10mi
Dew Point: 23°   Wind: 7mph
Humidity: 78%   Direction: 310°NW
Pressure: 29.83"   Gusts: NA
Location:  44.7323°N, 68.9137°W
Report Text: KBGR 191153Z 31006KT 10SM OVC023 M02/M05 A2983 RMK AO2 SLP104 4/002 70002 T10171050 11011 21022 53021
Loading
Personal Weather Stations






























Interactive Weather Map New forecast layout! Learn more

10-Day Weather Forecast

Advertisements
Track Severe Weather on mobile